sensor_id;sensor_type;location;lat;lon;timestamp;pressure;altitude;pressure_sealevel;temperature
82778;BMP280;72510;45.128;20.734;2023-09-19T00:00:49;100313.31;;;22.64
82778;BMP280;72510;45.128;20.734;2023-09-19T00:10:50;100305.00;;;22.62
82778;BMP280;72510;45.128;20.734;2023-09-19T00:20:50;100314.22;;;22.66
82778;BMP280;72510;45.128;20.734;2023-09-19T00:30:51;100314.03;;;22.72
82778;BMP280;72510;45.128;20.734;2023-09-19T00:40:51;100305.09;;;22.79
82778;BMP280;72510;45.128;20.734;2023-09-19T00:50:51;100302.97;;;22.70
82778;BMP280;72510;45.128;20.734;2023-09-19T01:00:53;100305.19;;;22.64
82778;BMP280;72510;45.128;20.734;2023-09-19T01:10:59;100305.19;;;22.64
82778;BMP280;72510;45.128;20.734;2023-09-19T01:31:09;100307.38;;;22.58
82778;BMP280;72510;45.128;20.734;2023-09-19T01:41:16;100309.56;;;22.59
82778;BMP280;72510;45.128;20.734;2023-09-19T02:01:52;100318.94;;;22.58
82778;BMP280;72510;45.128;20.734;2023-09-19T02:11:53;100314.41;;;22.61
82778;BMP280;72510;45.128;20.734;2023-09-19T02:21:53;100321.66;;;22.58
82778;BMP280;72510;45.128;20.734;2023-09-19T02:31:53;100325.47;;;22.55
82778;BMP280;72510;45.128;20.734;2023-09-19T02:41:54;100333.31;;;22.43
82778;BMP280;72510;45.128;20.734;2023-09-19T02:51:55;100324.69;;;22.22
82778;BMP280;72510;45.128;20.734;2023-09-19T03:01:58;100318.72;;;22.16
82778;BMP280;72510;45.128;20.734;2023-09-19T03:11:58;100300.50;;;22.01
82778;BMP280;72510;45.128;20.734;2023-09-19T03:21:59;100286.75;;;21.99
82778;BMP280;72510;45.128;20.734;2023-09-19T03:32:00;100234.00;;;21.77
82778;BMP280;72510;45.128;20.734;2023-09-19T03:42:01;100213.25;;;21.56
82778;BMP280;72510;45.128;20.734;2023-09-19T03:52:02;100176.78;;;21.42
82778;BMP280;72510;45.128;20.734;2023-09-19T04:02:03;100183.09;;;21.37
82778;BMP280;72510;45.128;20.734;2023-09-19T04:12:04;100178.94;;;21.36
82778;BMP280;72510;45.128;20.734;2023-09-19T04:22:04;100199.16;;;21.43
82778;BMP280;72510;45.128;20.734;2023-09-19T04:32:05;100212.53;;;21.48
82778;BMP280;72510;45.128;20.734;2023-09-19T04:42:05;100229.69;;;21.51
82778;BMP280;72510;45.128;20.734;2023-09-19T04:52:06;100245.25;;;21.50
82778;BMP280;72510;45.128;20.734;2023-09-19T05:02:06;100252.25;;;21.53
82778;BMP280;72510;45.128;20.734;2023-09-19T05:12:07;100238.38;;;21.57
82778;BMP280;72510;45.128;20.734;2023-09-19T05:22:10;100248.84;;;21.53
82778;BMP280;72510;45.128;20.734;2023-09-19T05:32:11;100260.97;;;21.59
82778;BMP280;72510;45.128;20.734;2023-09-19T05:42:11;100272.69;;;21.70
82778;BMP280;72510;45.128;20.734;2023-09-19T05:52:14;100266.31;;;21.90
82778;BMP280;72510;45.128;20.734;2023-09-19T06:02:14;100261.63;;;21.98
82778;BMP280;72510;45.128;20.734;2023-09-19T06:12:15;100295.94;;;22.11
82778;BMP280;72510;45.128;20.734;2023-09-19T06:22:18;100283.00;;;22.42
82778;BMP280;72510;45.128;20.734;2023-09-19T06:32:27;100274.63;;;22.88
82778;BMP280;72510;45.128;20.734;2023-09-19T06:42:27;100303.31;;;23.32
82778;BMP280;72510;45.128;20.734;2023-09-19T06:52:28;100296.28;;;23.88
82778;BMP280;72510;45.128;20.734;2023-09-19T07:02:28;100298.69;;;23.84
82778;BMP280;72510;45.128;20.734;2023-09-19T07:12:36;100313.06;;;23.95
82778;BMP280;72510;45.128;20.734;2023-09-19T07:22:36;100303.19;;;24.07
82778;BMP280;72510;45.128;20.734;2023-09-19T07:32:44;100310.13;;;24.00
82778;BMP280;72510;45.128;20.734;2023-09-19T07:42:44;100297.66;;;24.42
82778;BMP280;72510;45.128;20.734;2023-09-19T07:52:46;100307.78;;;25.22
82778;BMP280;72510;45.128;20.734;2023-09-19T08:02:47;100313.03;;;25.96
82778;BMP280;72510;45.128;20.734;2023-09-19T08:12:48;100298.72;;;26.77
82778;BMP280;72510;45.128;20.734;2023-09-19T08:22:52;100307.50;;;26.35
82778;BMP280;72510;45.128;20.734;2023-09-19T08:33:00;100307.28;;;26.93
82778;BMP280;72510;45.128;20.734;2023-09-19T08:43:00;100308.59;;;27.56
82778;BMP280;72510;45.128;20.734;2023-09-19T08:53:09;100314.91;;;27.92
82778;BMP280;72510;45.128;20.734;2023-09-19T09:03:13;100315.59;;;27.81
82778;BMP280;72510;45.128;20.734;2023-09-19T09:13:14;100302.81;;;27.40
82778;BMP280;72510;45.128;20.734;2023-09-19T09:23:18;100301.22;;;27.92
82778;BMP280;72510;45.128;20.734;2023-09-19T09:33:18;100286.75;;;28.48
82778;BMP280;72510;45.128;20.734;2023-09-19T09:43:26;100296.94;;;29.06
82778;BMP280;72510;45.128;20.734;2023-09-19T09:53:29;100301.34;;;29.11
82778;BMP280;72510;45.128;20.734;2023-09-19T10:03:36;100281.16;;;28.70
82778;BMP280;72510;45.128;20.734;2023-09-19T10:13:38;100279.03;;;30.21
82778;BMP280;72510;45.128;20.734;2023-09-19T10:23:40;100284.63;;;30.64
82778;BMP280;72510;45.128;20.734;2023-09-19T10:33:42;100268.09;;;30.78
82778;BMP280;72510;45.128;20.734;2023-09-19T10:43:43;100264.00;;;31.38
82778;BMP280;72510;45.128;20.734;2023-09-19T10:54:01;100251.69;;;31.71
82778;BMP280;72510;45.128;20.734;2023-09-19T11:04:33;100256.09;;;31.94
82778;BMP280;72510;45.128;20.734;2023-09-19T11:14:37;100224.72;;;32.35
82778;BMP280;72510;45.128;20.734;2023-09-19T11:24:42;100231.53;;;33.03
82778;BMP280;72510;45.128;20.734;2023-09-19T11:34:43;100206.72;;;33.43
82778;BMP280;72510;45.128;20.734;2023-09-19T11:44:44;100231.22;;;34.58
82778;BMP280;72510;45.128;20.734;2023-09-19T11:54:44;100240.41;;;33.39
82778;BMP280;72510;45.128;20.734;2023-09-19T12:04:45;100250.09;;;31.50
82778;BMP280;72510;45.128;20.734;2023-09-19T12:14:50;100246.25;;;30.39
82778;BMP280;72510;45.128;20.734;2023-09-19T12:24:50;100266.94;;;29.73
82778;BMP280;72510;45.128;20.734;2023-09-19T12:34:52;100260.78;;;30.00
82778;BMP280;72510;45.128;20.734;2023-09-19T12:44:53;100255.28;;;32.07
82778;BMP280;72510;45.128;20.734;2023-09-19T12:54:53;100254.38;;;32.52
82778;BMP280;72510;45.128;20.734;2023-09-19T13:04:54;100250.91;;;32.34
82778;BMP280;72510;45.128;20.734;2023-09-19T13:15:09;100262.06;;;34.27
82778;BMP280;72510;45.128;20.734;2023-09-19T13:25:15;100269.75;;;35.46
82778;BMP280;72510;45.128;20.734;2023-09-19T13:35:15;100260.94;;;36.38
82778;BMP280;72510;45.128;20.734;2023-09-19T13:45:19;100262.44;;;37.85
82778;BMP280;72510;45.128;20.734;2023-09-19T13:55:20;100256.25;;;38.37
82778;BMP280;72510;45.128;20.734;2023-09-19T14:05:20;100273.69;;;35.37
82778;BMP280;72510;45.128;20.734;2023-09-19T14:15:21;100274.81;;;32.99
82778;BMP280;72510;45.128;20.734;2023-09-19T14:25:21;100282.06;;;32.05
82778;BMP280;72510;45.128;20.734;2023-09-19T14:35:25;100276.94;;;31.66
82778;BMP280;72510;45.128;20.734;2023-09-19T14:45:29;100274.09;;;31.79
82778;BMP280;72510;45.128;20.734;2023-09-19T14:55:37;100279.03;;;32.14
82778;BMP280;72510;45.128;20.734;2023-09-19T15:05:49;100294.91;;;32.32
82778;BMP280;72510;45.128;20.734;2023-09-19T15:16:08;100299.47;;;31.46
82778;BMP280;72510;45.128;20.734;2023-09-19T15:26:11;100322.50;;;30.66
82778;BMP280;72510;45.128;20.734;2023-09-19T15:36:14;100321.47;;;30.87
82778;BMP280;72510;45.128;20.734;2023-09-19T15:46:15;100318.41;;;30.39
82778;BMP280;72510;45.128;20.734;2023-09-19T15:56:17;100334.13;;;29.21
82778;BMP280;72510;45.128;20.734;2023-09-19T16:06:20;100351.22;;;28.49
82778;BMP280;72510;45.128;20.734;2023-09-19T16:16:22;100345.41;;;27.98
82778;BMP280;72510;45.128;20.734;2023-09-19T16:26:25;100353.56;;;27.53
82778;BMP280;72510;45.128;20.734;2023-09-19T16:36:28;100360.38;;;26.90
82778;BMP280;72510;45.128;20.734;2023-09-19T16:46:29;100363.53;;;26.45
82778;BMP280;72510;45.128;20.734;2023-09-19T16:56:30;100375.94;;;25.98
82778;BMP280;72510;45.128;20.734;2023-09-19T17:06:31;100400.66;;;26.10
82778;BMP280;72510;45.128;20.734;2023-09-19T17:16:32;100420.63;;;26.22
82778;BMP280;72510;45.128;20.734;2023-09-19T17:26:33;100432.97;;;25.84
82778;BMP280;72510;45.128;20.734;2023-09-19T17:36:34;100430.81;;;25.36
82778;BMP280;72510;45.128;20.734;2023-09-19T17:46:37;100447.69;;;24.98
82778;BMP280;72510;45.128;20.734;2023-09-19T17:56:38;100452.63;;;24.82
82778;BMP280;72510;45.128;20.734;2023-09-19T18:06:38;100465.88;;;24.68
82778;BMP280;72510;45.128;20.734;2023-09-19T18:16:39;100469.94;;;24.42
82778;BMP280;72510;45.128;20.734;2023-09-19T18:26:40;100477.00;;;24.03
82778;BMP280;72510;45.128;20.734;2023-09-19T18:36:43;100490.88;;;23.89
82778;BMP280;72510;45.128;20.734;2023-09-19T18:46:44;100505.72;;;23.71
82778;BMP280;72510;45.128;20.734;2023-09-19T18:56:44;100511.94;;;23.24
82778;BMP280;72510;45.128;20.734;2023-09-19T19:06:44;100517.44;;;23.01
82778;BMP280;72510;45.128;20.734;2023-09-19T19:16:45;100537.09;;;22.68
82778;BMP280;72510;45.128;20.734;2023-09-19T19:26:47;100542.69;;;22.32
82778;BMP280;72510;45.128;20.734;2023-09-19T19:36:47;100558.25;;;22.24
82778;BMP280;72510;45.128;20.734;2023-09-19T19:46:48;100563.84;;;22.26
82778;BMP280;72510;45.128;20.734;2023-09-19T19:56:48;100562.09;;;21.77
82778;BMP280;72510;45.128;20.734;2023-09-19T20:06:49;100556.91;;;21.43
82778;BMP280;72510;45.128;20.734;2023-09-19T20:16:49;100559.56;;;21.79
82778;BMP280;72510;45.128;20.734;2023-09-19T20:26:49;100565.66;;;21.56
82778;BMP280;72510;45.128;20.734;2023-09-19T20:36:50;100568.22;;;21.70
82778;BMP280;72510;45.128;20.734;2023-09-19T20:46:52;100570.09;;;21.46
82778;BMP280;72510;45.128;20.734;2023-09-19T20:56:52;100580.94;;;21.46
82778;BMP280;72510;45.128;20.734;2023-09-19T21:06:56;100596.16;;;21.21
82778;BMP280;72510;45.128;20.734;2023-09-19T21:16:56;100594.47;;;21.10
82778;BMP280;72510;45.128;20.734;2023-09-19T21:26:59;100592.84;;;20.65
82778;BMP280;72510;45.128;20.734;2023-09-19T21:37:02;100589.28;;;20.01
82778;BMP280;72510;45.128;20.734;2023-09-19T21:47:03;100580.22;;;20.12
82778;BMP280;72510;45.128;20.734;2023-09-19T21:57:04;100601.09;;;19.64
82778;BMP280;72510;45.128;20.734;2023-09-19T22:07:05;100601.38;;;19.47
82778;BMP280;72510;45.128;20.734;2023-09-19T22:17:05;100591.53;;;19.50
82778;BMP280;72510;45.128;20.734;2023-09-19T22:27:05;100599.72;;;19.31
82778;BMP280;72510;45.128;20.734;2023-09-19T22:37:08;100589.88;;;19.33
82778;BMP280;72510;45.128;20.734;2023-09-19T22:47:11;100575.50;;;19.25
82778;BMP280;72510;45.128;20.734;2023-09-19T22:57:24;100591.06;;;19.06
82778;BMP280;72510;45.128;20.734;2023-09-19T23:07:24;100598.69;;;19.02
82778;BMP280;72510;45.128;20.734;2023-09-19T23:17:25;100601.50;;;18.26
82778;BMP280;72510;45.128;20.734;2023-09-19T23:27:25;100605.22;;;18.23
82778;BMP280;72510;45.128;20.734;2023-09-19T23:37:26;100602.91;;;18.33
82778;BMP280;72510;45.128;20.734;2023-09-19T23:47:27;100609.50;;;18.32
82778;BMP280;72510;45.128;20.734;2023-09-19T23:57:27;100621.47;;;18.17
